Industrial, Louisiana
Current Conditions -  °F | °C
As of 10:53 PM on Friday 28 Nov 2014 (Local Time) from KDTN Reporting Station
Clear Clear  
Wind Chill: 53°   Ceiling: Unl
Heat Index: 53°   Visibility: 10mi
Dew Point: 49°   Wind: 9mph
Humidity: 86%   Direction: 160°SSE
Pressure: 30.09"   Gusts: NA
Location:  32.5955°N, 93.8642°W
Report Text: KDTN 290453Z AUTO 16008KT 10SM CLR 12/09 A3009 RMK AO2 SLP187 T01170094
Loading
Personal Weather Stations






























Interactive Weather Map New forecast layout! Learn more

10-Day Weather Forecast

Advertisements
Track Severe Weather on mobile